Time;durP1;ratioP1;P1;durP2;ratioP2;P2;SDS_P1;SDS_P2;PMS_P1;PMS_P2;Temp;Humidity;BMP_temperature;BMP_pressure;BME280_temperature;BME280_humidity;BME280_pressure;Samples;Min_cycle;Max_cycle;Signal;HPM_P1;HPM_P2
2023/03/13 00:00:12;;;;;;;5.28;3.40;;;22.80;73.60;;;;;;6099969;28;80392;-62
2023/03/13 00:03:12;;;;;;;6.25;3.38;;;22.80;73.80;;;;;;6155087;28;81413;-63
2023/03/13 00:06:13;;;;;;;5.05;3.17;;;22.80;73.80;;;;;;6144844;28;81241;-67
2023/03/13 00:09:13;;;;;;;5.30;3.05;;;22.80;73.60;;;;;;6098804;28;80684;-66
2023/03/13 00:12:14;;;;;;;5.72;3.05;;;22.90;73.60;;;;;;6099859;28;82040;-64
2023/03/13 00:15:14;;;;;;;5.50;2.95;;;22.90;73.60;;;;;;6099550;28;82277;-64
2023/03/13 00:18:15;;;;;;;4.53;2.75;;;22.90;73.50;;;;;;6101023;28;80960;-66
2023/03/13 00:21:16;;;;;;;4.70;3.10;;;22.90;73.50;;;;;;6092393;28;80909;-66
2023/03/13 00:24:16;;;;;;;5.18;2.92;;;22.90;73.50;;;;;;6147898;28;83668;-69
2023/03/13 00:27:17;;;;;;;4.80;2.50;;;22.90;73.50;;;;;;6137567;28;81479;-68
2023/03/13 00:30:17;;;;;;;3.55;2.33;;;22.90;73.70;;;;;;6099978;28;80501;-68
2023/03/13 00:33:18;;;;;;;4.13;2.40;;;22.90;73.80;;;;;;6098608;28;83168;-66
2023/03/13 00:36:18;;;;;;;4.57;2.67;;;22.90;73.80;;;;;;6099480;28;81956;-66
2023/03/13 00:39:19;;;;;;;3.97;2.33;;;22.90;73.80;;;;;;6099848;28;80482;-66
2023/03/13 00:42:19;;;;;;;3.10;2.30;;;22.90;73.80;;;;;;6101114;28;81309;-62
2023/03/13 00:45:20;;;;;;;3.13;1.98;;;22.90;73.80;;;;;;6096901;28;83580;-63
2023/03/13 00:48:20;;;;;;;3.58;2.28;;;22.90;73.80;;;;;;6098159;28;80266;-62
2023/03/13 00:51:22;;;;;;;3.17;2.08;;;22.90;73.80;;;;;;6097078;28;83165;-62
2023/03/13 00:54:23;;;;;;;2.97;2.10;;;22.90;73.80;;;;;;6098533;28;80355;-62
2023/03/13 00:57:23;;;;;;;2.30;1.80;;;22.90;73.80;;;;;;6096387;28;80714;-62
2023/03/13 01:00:24;;;;;;;2.78;1.63;;;22.80;73.70;;;;;;6096456;28;85831;-61
2023/03/13 01:03:25;;;;;;;3.25;1.70;;;22.90;73.80;;;;;;6097768;28;83402;-61
2023/03/13 01:06:26;;;;;;;3.63;2.05;;;22.90;73.90;;;;;;6100207;28;80837;-62
2023/03/13 01:09:26;;;;;;;3.10;1.65;;;22.80;73.90;;;;;;6099165;28;81723;-62
2023/03/13 01:12:27;;;;;;;2.70;1.70;;;22.80;74.00;;;;;;6101241;28;81385;-62
2023/03/13 01:15:27;;;;;;;2.50;1.80;;;22.80;74.10;;;;;;6101322;28;81640;-62
2023/03/13 01:18:28;;;;;;;2.17;1.60;;;22.80;74.00;;;;;;6101025;28;81680;-65
2023/03/13 01:21:28;;;;;;;1.95;1.58;;;22.80;74.00;;;;;;6094305;28;80471;-64
2023/03/13 01:24:29;;;;;;;2.20;1.48;;;22.80;74.00;;;;;;6101662;28;85729;-63
2023/03/13 01:27:30;;;;;;;1.55;1.35;;;22.80;74.10;;;;;;6168210;28;80532;-62
2023/03/13 01:30:31;;;;;;;3.67;1.63;;;22.80;74.00;;;;;;6136652;28;83326;-62
2023/03/13 01:33:31;;;;;;;2.75;2.10;;;22.80;74.00;;;;;;6103179;28;80356;-63
2023/03/13 01:36:32;;;;;;;2.13;1.65;;;22.80;74.00;;;;;;6167837;28;80304;-65
2023/03/13 01:39:32;;;;;;;1.88;1.48;;;22.80;73.90;;;;;;6132558;28;80124;-64
2023/03/13 01:42:33;;;;;;;1.40;1.30;;;22.80;74.00;;;;;;6101021;28;83281;-64
2023/03/13 01:45:33;;;;;;;2.10;1.48;;;22.80;74.00;;;;;;6094976;28;83135;-65
2023/03/13 01:48:34;;;;;;;2.13;1.30;;;22.80;74.00;;;;;;6101081;28;83557;-66
2023/03/13 01:51:35;;;;;;;3.60;1.65;;;22.80;74.00;;;;;;6095667;28;83094;-65
2023/03/13 01:54:35;;;;;;;2.42;1.48;;;22.90;74.10;;;;;;6092420;28;82129;-65
2023/03/13 01:57:36;;;;;;;2.40;1.60;;;22.80;74.10;;;;;;6101298;28;82606;-66
2023/03/13 02:00:37;;;;;;;1.50;1.27;;;22.80;74.00;;;;;;6100832;28;83383;-66
2023/03/13 02:03:42;;;;;;;1.40;1.30;;;22.90;74.00;;;;;;6089655;28;82771;-64
2023/03/13 02:06:43;;;;;;;2.53;1.60;;;22.90;74.10;;;;;;6092662;28;81902;-65
2023/03/13 02:09:44;;;;;;;1.98;1.38;;;22.80;74.00;;;;;;6100135;28;83451;-64
2023/03/13 02:12:44;;;;;;;1.92;1.30;;;22.90;74.10;;;;;;6101706;28;80430;-64
2023/03/13 02:15:45;;;;;;;2.17;1.35;;;22.90;74.10;;;;;;6101914;28;80749;-71
2023/03/13 02:18:45;;;;;;;1.98;1.10;;;22.90;74.10;;;;;;6102075;28;83522;-69
2023/03/13 02:21:46;;;;;;;1.40;1.10;;;22.90;74.00;;;;;;6080762;28;83787;-70
2023/03/13 02:24:47;;;;;;;1.60;1.30;;;22.90;74.10;;;;;;6101282;28;80268;-71
2023/03/13 02:27:48;;;;;;;2.10;1.38;;;22.80;74.00;;;;;;6100918;28;82895;-71
2023/03/13 02:30:48;;;;;;;1.90;1.33;;;22.90;74.00;;;;;;6100111;28;82905;-70
2023/03/13 02:33:49;;;;;;;1.95;1.30;;;22.90;74.00;;;;;;6164707;28;81492;-66
2023/03/13 02:36:52;;;;;;;1.63;1.27;;;22.90;73.90;;;;;;6134470;28;82957;-65
2023/03/13 02:39:53;;;;;;;2.42;1.27;;;22.90;74.10;;;;;;6101419;28;83945;-63
2023/03/13 02:42:55;;;;;;;1.50;1.27;;;22.80;74.00;;;;;;6169957;28;82728;-63
2023/03/13 02:45:55;;;;;;;1.38;1.23;;;22.90;74.00;;;;;;6122585;28;80640;-63
2023/03/13 02:48:56;;;;;;;1.52;1.25;;;22.90;74.10;;;;;;6100007;28;83287;-65
2023/03/13 02:51:58;;;;;;;2.08;1.40;;;22.90;74.10;;;;;;6099852;28;81886;-68
2023/03/13 02:54:59;;;;;;;1.48;1.00;;;22.90;74.10;;;;;;6173354;28;83519;-69
2023/03/13 02:58:00;;;;;;;1.73;1.00;;;22.80;74.10;;;;;;6114381;28;83614;-71
2023/03/13 03:01:06;;;;;;;1.77;1.20;;;22.80;74.10;;;;;;6082366;28;83291;-68
2023/03/13 03:04:08;;;;;;;1.30;1.20;;;22.90;74.20;;;;;;6088735;28;82455;-68
2023/03/13 03:07:09;;;;;;;1.42;1.10;;;22.80;74.30;;;;;;6100519;28;83547;-67
2023/03/13 03:10:10;;;;;;;1.35;1.10;;;22.80;74.20;;;;;;6101245;28;80492;-67
2023/03/13 03:13:10;;;;;;;1.65;1.23;;;22.90;74.30;;;;;;6100519;28;83571;-66
2023/03/13 03:16:11;;;;;;;1.17;1.08;;;22.80;74.30;;;;;;6101641;28;83204;-65
2023/03/13 03:19:11;;;;;;;1.25;1.00;;;22.90;74.50;;;;;;6099793;28;82960;-64
2023/03/13 03:22:12;;;;;;;1.55;1.10;;;22.80;74.40;;;;;;6101308;28;80361;-64
2023/03/13 03:25:12;;;;;;;1.10;1.02;;;22.80;74.40;;;;;;6099574;28;80401;-66
2023/03/13 03:28:13;;;;;;;1.00;0.90;;;22.80;74.40;;;;;;6099819;28;83467;-64
2023/03/13 03:31:16;;;;;;;1.30;1.20;;;22.80;74.30;;;;;;6099814;28;82924;-64
2023/03/13 03:34:16;;;;;;;1.70;1.30;;;22.80;74.20;;;;;;6190726;28;81230;-66
2023/03/13 03:37:17;;;;;;;1.52;1.02;;;22.80;74.30;;;;;;6108401;28;83118;-66
2023/03/13 03:40:19;;;;;;;1.92;1.20;;;22.80;74.30;;;;;;6090664;28;83214;-65
2023/03/13 03:43:19;;;;;;;1.15;0.90;;;22.80;74.40;;;;;;6191210;28;80524;-65
2023/03/13 03:46:20;;;;;;;1.75;1.27;;;22.80;74.40;;;;;;6106406;28;83325;-68
2023/03/13 03:49:21;;;;;;;0.80;0.80;;;22.80;74.40;;;;;;6100348;28;80306;-70
2023/03/13 03:52:21;;;;;;;0.90;0.90;;;22.80;74.40;;;;;;6185741;28;82548;-67
2023/03/13 03:55:22;;;;;;;1.13;0.95;;;22.80;74.40;;;;;;6109622;28;83107;-68
2023/03/13 03:58:23;;;;;;;2.05;1.08;;;22.80;74.50;;;;;;6099348;28;80339;-68
2023/03/13 04:01:40;;;;;;;2.83;1.30;;;22.80;74.60;;;;;;6096834;27;88338;-67
2023/03/13 04:04:41;;;;;;;1.48;1.02;;;22.80;74.70;;;;;;6099457;28;81860;-65
2023/03/13 04:07:45;;;;;;;1.23;1.00;;;22.80;74.70;;;;;;6098534;28;83488;-65
2023/03/13 04:10:46;;;;;;;1.20;1.00;;;22.80;74.90;;;;;;6097992;28;83005;-64
2023/03/13 04:13:47;;;;;;;1.73;1.10;;;22.80;74.60;;;;;;6099367;28;83590;-66
2023/03/13 04:16:47;;;;;;;2.05;1.20;;;22.80;74.60;;;;;;6099991;28;81445;-66
2023/03/13 04:19:49;;;;;;;1.38;1.08;;;22.80;74.70;;;;;;6093928;27;82324;-64
2023/03/13 04:22:50;;;;;;;2.15;1.55;;;22.90;74.40;;;;;;6088674;28;81976;-65
2023/03/13 04:25:51;;;;;;;1.08;0.98;;;22.90;74.20;;;;;;6098025;28;83637;-65
2023/03/13 04:28:52;;;;;;;1.88;1.20;;;22.90;74.10;;;;;;6149193;28;83222;-65
2023/03/13 04:32:02;;;;;;;1.23;1.00;;;23.00;74.10;;;;;;6096234;28;83827;-67
2023/03/13 04:35:12;;;;;;;1.35;1.25;;;23.00;74.10;;;;;;6093152;28;83254;-69
2023/03/13 04:38:33;;;;;;;1.60;1.10;;;23.00;74.10;;;;;;6099241;28;80035;-67
2023/03/13 04:41:54;;;;;;;1.33;1.00;;;23.10;74.10;;;;;;6064720;28;82614;-68
2023/03/13 04:45:14;;;;;;;1.40;0.93;;;23.20;74.10;;;;;;6101973;28;86404;-71
2023/03/13 04:48:23;;;;;;;1.95;1.20;;;23.20;74.70;;;;;;6100397;28;80786;-68
2023/03/13 04:51:42;;;;;;;1.50;1.27;;;23.20;74.10;;;;;;6100841;28;81352;-70
2023/03/13 04:55:03;;;;;;;2.85;1.60;;;23.20;74.10;;;;;;6099118;28;80401;-70
2023/03/13 04:58:27;;;;;;;2.05;1.33;;;23.20;74.10;;;;;;6191336;28;80671;-70
2023/03/13 05:01:46;;;;;;;1.33;1.10;;;23.30;74.10;;;;;;6099338;28;85149;-69
2023/03/13 05:05:05;;;;;;;1.95;1.25;;;23.30;74.10;;;;;;6094830;28;83089;-69
2023/03/13 05:08:24;;;;;;;1.27;1.05;;;23.30;74.30;;;;;;6097010;28;85922;-65
2023/03/13 05:11:51;;;;;;;9.88;1.27;;;23.30;74.30;;;;;;6089194;28;83050;-63
2023/03/13 05:15:17;;;;;;;5.50;1.20;;;23.20;74.30;;;;;;6070972;28;81201;-65
2023/03/13 05:18:38;;;;;;;1.73;1.20;;;23.20;74.30;;;;;;6095054;28;85888;-65
2023/03/13 05:21:49;;;;;;;3.08;1.40;;;23.20;74.20;;;;;;6096266;28;80326;-62
2023/03/13 05:24:59;;;;;;;2.45;1.35;;;23.30;74.10;;;;;;6094982;28;83419;-63
2023/03/13 05:28:18;;;;;;;2.20;1.42;;;23.30;74.10;;;;;;6097155;28;82599;-62
2023/03/13 05:31:48;;;;;;;2.63;1.13;;;23.30;74.10;;;;;;6122237;27;85329;-63
2023/03/13 05:35:17;;;;;;;1.48;1.38;;;23.30;75.00;;;;;;6096725;28;82552;-63
2023/03/13 05:38:44;;;;;;;1.95;1.45;;;23.30;74.40;;;;;;6068379;28;83924;-62
2023/03/13 05:42:17;;;;;;;2.38;1.63;;;23.40;75.30;;;;;;6081328;28;80545;-68
2023/03/13 05:45:34;;;;;;;1.30;1.05;;;23.30;75.00;;;;;;6090188;28;84221;-72
2023/03/13 05:48:51;;;;;;;1.87;1.30;;;23.40;75.20;;;;;;6098535;28;80356;-69
2023/03/13 05:52:12;;;;;;;2.35;1.30;;;23.40;75.20;;;;;;6096427;28;81793;-66
2023/03/13 05:55:31;;;;;;;9.70;1.30;;;23.40;75.40;;;;;;6093805;28;83247;-66
2023/03/13 05:58:40;;;;;;;5.45;1.40;;;23.40;75.50;;;;;;6035881;28;90202;-67
2023/03/13 06:01:41;;;;;;;2.92;1.40;;;23.40;75.10;;;;;;6192667;28;81040;-73
2023/03/13 06:04:54;;;;;;;1.88;1.67;;;23.40;75.10;;;;;;6090405;28;85358;-74
2023/03/13 06:07:55;;;;;;;1.98;1.25;;;23.50;74.80;;;;;;6091936;28;83512;-69
2023/03/13 06:10:56;;;;;;;2.55;1.45;;;23.50;74.80;;;;;;6093196;28;84875;-71
2023/03/13 06:13:57;;;;;;;2.80;1.75;;;23.50;75.10;;;;;;6098655;28;83280;-63
2023/03/13 06:17:11;;;;;;;3.45;1.95;;;23.40;74.40;;;;;;6091261;28;83384;-64
2023/03/13 06:20:12;;;;;;;1.85;1.15;;;23.40;74.40;;;;;;6093027;28;85655;-64
2023/03/13 06:23:13;;;;;;;2.60;1.55;;;23.40;74.50;;;;;;6095590;28;81624;-64
2023/03/13 06:26:13;;;;;;;3.90;1.60;;;23.40;74.10;;;;;;6099928;28;80933;-65
2023/03/13 06:29:14;;;;;;;3.92;1.80;;;23.40;74.30;;;;;;6096698;28;81439;-66
2023/03/13 06:32:14;;;;;;;6.72;1.77;;;23.40;74.20;;;;;;6100829;28;81029;-65
2023/03/13 06:35:15;;;;;;;4.40;2.03;;;23.40;74.00;;;;;;6094078;28;80882;-66
2023/03/13 06:38:15;;;;;;;3.85;1.60;;;23.40;73.90;;;;;;6087624;28;81130;-64
2023/03/13 06:41:16;;;;;;;5.32;1.90;;;23.30;73.90;;;;;;6096887;28;80284;-64
2023/03/13 06:44:16;;;;;;;4.22;2.10;;;23.30;73.90;;;;;;6088925;28;81195;-63
2023/03/13 06:47:17;;;;;;;3.35;2.00;;;23.30;74.50;;;;;;6092013;28;81225;-62
2023/03/13 06:50:17;;;;;;;2.90;2.08;;;23.30;74.70;;;;;;6081185;28;80609;-68
2023/03/13 06:53:18;;;;;;;4.45;2.90;;;23.30;74.70;;;;;;6096451;28;81790;-67
2023/03/13 06:56:20;;;;;;;3.53;2.30;;;23.30;74.60;;;;;;6096538;28;82420;-66
2023/03/13 06:59:21;;;;;;;5.55;2.53;;;23.30;74.40;;;;;;6088371;28;81103;-64
2023/03/13 07:02:21;;;;;;;4.82;2.35;;;23.30;74.50;;;;;;6100187;28;81557;-68
2023/03/13 07:05:22;;;;;;;4.07;2.53;;;23.20;74.30;;;;;;6102145;28;80273;-66
2023/03/13 07:08:24;;;;;;;6.05;2.70;;;23.20;74.40;;;;;;6102350;28;85291;-64
2023/03/13 07:11:25;;;;;;;3.60;2.25;;;23.20;74.50;;;;;;6089821;28;83466;-64
2023/03/13 07:14:25;;;;;;;6.68;3.65;;;23.20;74.50;;;;;;6092043;28;81780;-66
2023/03/13 07:17:26;;;;;;;6.97;2.45;;;23.20;74.30;;;;;;6068918;28;82839;-65
2023/03/13 07:20:26;;;;;;;6.30;3.00;;;23.10;74.20;;;;;;6102558;28;81772;-66
2023/03/13 07:23:27;;;;;;;5.15;2.63;;;23.20;74.20;;;;;;6100077;28;80497;-64
2023/03/13 07:26:27;;;;;;;6.53;2.70;;;23.20;74.10;;;;;;6095952;28;80890;-63
2023/03/13 07:29:28;;;;;;;7.10;3.10;;;23.20;74.10;;;;;;6083096;28;81650;-65
2023/03/13 07:32:28;;;;;;;5.70;2.88;;;23.30;74.20;;;;;;6117505;28;83016;-66
2023/03/13 07:35:29;;;;;;;5.07;2.40;;;23.20;74.00;;;;;;6093261;28;83536;-63
2023/03/13 07:38:30;;;;;;;4.63;2.45;;;23.20;74.50;;;;;;6094001;28;80861;-63
2023/03/13 07:41:30;;;;;;;5.72;2.95;;;23.30;74.00;;;;;;6092024;28;80435;-64
2023/03/13 07:44:31;;;;;;;5.65;2.67;;;23.20;74.10;;;;;;6084398;28;80480;-62
2023/03/13 07:47:31;;;;;;;5.35;2.80;;;23.20;74.10;;;;;;6095473;28;83520;-59
2023/03/13 07:50:32;;;;;;;6.05;3.00;;;23.30;74.10;;;;;;6092554;28;84567;-62
2023/03/13 07:53:32;;;;;;;6.68;2.95;;;23.30;74.20;;;;;;6096093;28;81778;-60
2023/03/13 07:56:33;;;;;;;9.27;2.90;;;23.30;74.20;;;;;;6096008;28;82970;-61
2023/03/13 07:59:33;;;;;;;8.13;2.88;;;23.30;74.20;;;;;;6095456;28;81526;-62
2023/03/13 08:02:34;;;;;;;7.05;2.65;;;23.30;74.30;;;;;;6096182;28;81341;-62
2023/03/13 08:05:34;;;;;;;8.15;2.83;;;23.30;74.60;;;;;;6131609;27;80597;-59
2023/03/13 08:08:35;;;;;;;7.55;2.92;;;23.30;74.50;;;;;;6163940;28;80716;-61
2023/03/13 08:11:35;;;;;;;8.48;3.15;;;23.30;74.50;;;;;;6093126;28;80979;-59
2023/03/13 08:14:36;;;;;;;7.47;2.30;;;23.30;74.60;;;;;;6081517;28;80977;-59
2023/03/13 08:17:36;;;;;;;4.85;2.33;;;23.30;74.60;;;;;;6082328;28;83117;-58
2023/03/13 08:20:37;;;;;;;7.25;2.58;;;23.30;74.60;;;;;;6096331;28;83073;-59
2023/03/13 08:23:37;;;;;;;5.57;2.60;;;23.30;74.60;;;;;;6097259;28;83070;-59
2023/03/13 08:26:38;;;;;;;6.88;3.05;;;23.30;74.50;;;;;;6087302;28;82059;-60
2023/03/13 08:29:38;;;;;;;5.65;2.30;;;23.30;74.60;;;;;;6097229;28;81733;-68
2023/03/13 08:32:39;;;;;;;4.85;2.55;;;23.30;74.60;;;;;;6099822;28;80295;-59
2023/03/13 08:35:40;;;;;;;6.05;2.67;;;23.30;75.00;;;;;;6102298;28;83467;-61
2023/03/13 08:38:44;;;;;;;4.90;2.38;;;23.40;76.90;;;;;;6102088;27;80412;-64
2023/03/13 08:41:44;;;;;;;6.22;2.60;;;23.40;78.10;;;;;;6101061;28;80369;-69
2023/03/13 08:44:45;;;;;;;5.07;2.65;;;23.40;79.70;;;;;;6101499;28;80815;-65
2023/03/13 08:47:45;;;;;;;5.35;2.22;;;23.40;79.80;;;;;;6098632;28;81060;-65
2023/03/13 08:50:46;;;;;;;8.57;2.45;;;23.40;79.60;;;;;;6097372;28;85600;-64
2023/03/13 08:53:46;;;;;;;8.75;2.83;;;23.40;79.70;;;;;;6097918;28;80591;-69
2023/03/13 08:56:47;;;;;;;4.30;2.22;;;23.40;79.50;;;;;;6098831;28;82928;-71
2023/03/13 08:59:49;;;;;;;8.43;2.83;;;23.40;79.70;;;;;;6102046;28;80716;-71
2023/03/13 09:02:50;;;;;;;7.25;2.63;;;23.30;79.60;;;;;;6102589;28;80652;-70
2023/03/13 09:05:50;;;;;;;7.03;2.15;;;23.40;79.80;;;;;;6105352;28;80794;-69
2023/03/13 09:08:51;;;;;;;7.65;3.10;;;23.40;79.80;;;;;;6104843;28;82188;-69
2023/03/13 09:11:51;;;;;;;7.00;2.25;;;23.40;79.70;;;;;;6089834;28;83259;-68
2023/03/13 09:14:52;;;;;;;11.60;2.50;;;23.40;80.00;;;;;;6105930;28;81281;-71
2023/03/13 09:17:52;;;;;;;5.93;2.17;;;23.50;80.10;;;;;;6099710;28;80485;-69
2023/03/13 09:20:53;;;;;;;5.63;2.40;;;23.50;80.30;;;;;;6095544;28;83176;-69
2023/03/13 09:23:53;;;;;;;7.53;2.20;;;23.50;80.40;;;;;;6103274;28;80644;-70
2023/03/13 09:26:54;;;;;;;7.00;3.15;;;23.60;80.60;;;;;;6146346;28;82580;-70
2023/03/13 09:29:54;;;;;;;8.77;2.90;;;23.60;80.40;;;;;;6161576;28;82407;-67
2023/03/13 09:32:55;;;;;;;5.10;2.00;;;23.60;80.50;;;;;;6139538;28;84032;-66
2023/03/13 09:35:55;;;;;;;7.30;2.75;;;23.60;80.50;;;;;;6199875;28;80505;-66
2023/03/13 09:38:56;;;;;;;8.32;3.00;;;23.60;80.90;;;;;;6149937;28;85303;-67
2023/03/13 09:41:57;;;;;;;9.23;2.72;;;23.60;80.70;;;;;;6085850;28;86480;-65
2023/03/13 09:44:57;;;;;;;6.60;2.47;;;23.70;81.10;;;;;;6092871;28;85858;-65
2023/03/13 09:47:58;;;;;;;7.43;2.53;;;23.70;81.00;;;;;;6101199;28;85748;-64
2023/03/13 09:50:58;;;;;;;10.57;2.95;;;23.70;80.80;;;;;;6099685;28;81425;-66
2023/03/13 09:53:59;;;;;;;6.00;2.22;;;23.80;80.70;;;;;;6097403;28;85549;-59
2023/03/13 09:57:00;;;;;;;13.07;2.75;;;23.80;80.70;;;;;;6098464;28;83132;-61
2023/03/13 10:00:01;;;;;;;7.70;2.60;;;23.80;80.50;;;;;;6100382;28;85519;-60
2023/03/13 10:03:01;;;;;;;7.03;2.25;;;23.80;80.70;;;;;;6095450;28;81463;-59
2023/03/13 10:06:02;;;;;;;10.63;2.45;;;23.90;80.00;;;;;;6093891;28;80743;-60
2023/03/13 10:09:03;;;;;;;5.20;2.10;;;23.90;79.70;;;;;;6088433;28;81550;-60
2023/03/13 10:12:04;;;;;;;7.80;2.58;;;23.90;79.20;;;;;;6099427;28;82738;-62
2023/03/13 10:15:04;;;;;;;7.53;2.95;;;23.90;79.30;;;;;;6092741;28;84808;-62
2023/03/13 10:18:05;;;;;;;6.88;2.50;;;23.80;78.00;;;;;;6095976;28;84135;-61
2023/03/13 10:21:05;;;;;;;4.88;2.08;;;23.80;79.00;;;;;;6093204;28;81296;-61
2023/03/13 10:24:06;;;;;;;7.10;2.55;;;23.70;79.80;;;;;;6083817;28;86934;-60
2023/03/13 10:27:06;;;;;;;5.50;2.50;;;23.80;79.80;;;;;;6097472;28;80747;-61
2023/03/13 10:30:10;;;;;;;7.40;1.80;;;23.80;78.50;;;;;;5600781;28;84963;-60
2023/03/13 10:33:13;;;;;;;6.90;2.42;;;23.70;77.60;;;;;;5446711;28;84364;-61
2023/03/13 10:36:15;;;;;;;7.00;2.42;;;23.50;77.10;;;;;;5452039;28;83118;-61
2023/03/13 10:39:16;;;;;;;6.85;2.20;;;23.60;77.20;;;;;;5442773;28;83196;-60
2023/03/13 10:42:17;;;;;;;6.55;2.25;;;23.80;77.60;;;;;;5466618;28;83156;-63
2023/03/13 10:45:18;;;;;;;7.28;2.20;;;23.80;77.30;;;;;;5461155;28;84015;-66
2023/03/13 10:48:19;;;;;;;7.68;2.60;;;23.90;77.20;;;;;;5509443;28;83883;-66
2023/03/13 10:51:20;;;;;;;8.52;2.28;;;23.90;77.20;;;;;;5504700;27;83128;-69
2023/03/13 10:54:21;;;;;;;6.10;2.38;;;23.90;76.70;;;;;;5782556;28;83134;-70
2023/03/13 10:57:21;;;;;;;6.18;2.33;;;23.90;76.70;;;;;;6100305;28;81956;-66
2023/03/13 11:00:22;;;;;;;7.88;2.25;;;24.00;76.80;;;;;;6098555;28;80184;-64
2023/03/13 11:03:22;;;;;;;5.43;1.98;;;24.00;76.90;;;;;;6100642;28;81794;-68
2023/03/13 11:06:23;;;;;;;10.07;2.05;;;24.00;76.40;;;;;;6098583;28;80306;-63
2023/03/13 11:09:25;;;;;;;5.97;2.13;;;23.90;76.70;;;;;;6105248;28;81824;-70
2023/03/13 11:12:26;;;;;;;8.55;2.45;;;23.90;76.60;;;;;;6124868;28;80296;-71
2023/03/13 11:15:27;;;;;;;4.30;2.20;;;23.70;76.20;;;;;;6100852;28;80758;-69
2023/03/13 11:18:28;;;;;;;5.97;2.22;;;23.70;76.20;;;;;;6100869;28;80591;-65
2023/03/13 11:21:29;;;;;;;5.63;2.05;;;23.80;76.60;;;;;;6098113;28;82741;-65
2023/03/13 11:24:30;;;;;;;4.82;1.85;;;23.90;77.30;;;;;;6097027;28;83803;-66
2023/03/13 11:27:30;;;;;;;3.30;1.75;;;24.00;77.00;;;;;;6099712;28;81545;-65
2023/03/13 11:30:31;;;;;;;7.30;2.17;;;24.00;77.00;;;;;;6097733;28;82787;-64
2023/03/13 11:33:32;;;;;;;7.72;1.90;;;24.00;76.20;;;;;;6098682;28;82570;-66
2023/03/13 11:36:32;;;;;;;5.80;2.17;;;24.00;76.60;;;;;;6097052;28;80595;-63
2023/03/13 11:39:33;;;;;;;5.70;1.92;;;24.00;76.10;;;;;;6094597;28;80977;-62
2023/03/13 11:42:33;;;;;;;4.53;2.22;;;24.00;76.00;;;;;;6094812;28;83108;-61
2023/03/13 11:45:34;;;;;;;3.50;1.55;;;24.00;75.40;;;;;;6098253;28;81010;-60
2023/03/13 11:48:34;;;;;;;4.13;2.10;;;23.90;75.30;;;;;;6096938;28;80461;-62
2023/03/13 11:51:35;;;;;;;3.00;1.60;;;23.90;75.10;;;;;;6101486;28;80124;-61
2023/03/13 11:54:36;;;;;;;6.15;1.67;;;23.80;75.60;;;;;;6094947;28;81581;-66
2023/03/13 11:57:36;;;;;;;3.40;1.65;;;23.80;75.30;;;;;;6095585;28;80746;-63
2023/03/13 12:00:37;;;;;;;3.95;1.63;;;23.80;75.00;;;;;;6159711;28;80978;-62
2023/03/13 12:03:37;;;;;;;3.75;1.75;;;23.70;75.20;;;;;;6129247;28;80719;-66
2023/03/13 12:06:38;;;;;;;2.97;1.50;;;23.60;74.80;;;;;;6097957;28;86017;-67
2023/03/13 12:09:38;;;;;;;3.55;1.30;;;23.60;74.70;;;;;;6096458;28;80315;-63
2023/03/13 12:12:39;;;;;;;4.00;1.83;;;23.60;75.00;;;;;;6096012;28;85686;-65
2023/03/13 12:15:39;;;;;;;3.00;1.40;;;23.60;75.00;;;;;;6085130;28;82223;-61
2023/03/13 12:18:41;;;;;;;4.85;2.00;;;23.60;75.40;;;;;;6094347;28;80307;-62
2023/03/13 12:21:42;;;;;;;4.30;1.60;;;23.50;76.10;;;;;;6097573;28;81678;-62
2023/03/13 12:24:42;;;;;;;4.40;1.58;;;23.50;75.80;;;;;;6099326;28;80772;-62
2023/03/13 12:27:43;;;;;;;5.03;2.22;;;23.50;75.60;;;;;;6098813;28;80779;-62
2023/03/13 12:30:43;;;;;;;5.38;1.70;;;23.50;75.50;;;;;;6097634;28;80934;-70
2023/03/13 12:33:44;;;;;;;4.18;1.50;;;23.40;75.00;;;;;;6094960;28;83910;-63
2023/03/13 12:36:44;;;;;;;2.63;1.50;;;23.30;75.00;;;;;;6096178;27;81239;-61
2023/03/13 12:39:48;;;;;;;4.35;2.70;;;23.20;75.30;;;;;;6097696;28;81345;-65
2023/03/13 12:42:49;;;;;;;6.13;5.25;;;23.30;75.40;;;;;;6099216;28;82769;-65
2023/03/13 12:45:49;;;;;;;5.82;5.28;;;23.30;75.00;;;;;;6100412;28;80992;-68
2023/03/13 12:48:50;;;;;;;7.15;5.57;;;23.30;74.60;;;;;;6099775;28;80174;-66
2023/03/13 12:51:50;;;;;;;3.25;2.95;;;23.30;74.50;;;;;;6089433;28;86161;-67
2023/03/13 12:54:51;;;;;;;3.88;2.30;;;23.30;74.00;;;;;;6100438;28;81672;-66
2023/03/13 12:57:51;;;;;;;3.55;1.70;;;23.30;73.70;;;;;;6094663;28;82016;-64
2023/03/13 13:00:52;;;;;;;1.88;1.40;;;23.30;73.80;;;;;;6098352;28;80135;-68
2023/03/13 13:03:53;;;;;;;2.60;1.73;;;23.30;74.00;;;;;;6101734;28;83095;-67
2023/03/13 13:06:54;;;;;;;2.28;1.50;;;23.20;73.70;;;;;;6103408;28;85321;-64
2023/03/13 13:09:55;;;;;;;2.50;1.50;;;23.20;73.80;;;;;;6096987;28;81915;-65
2023/03/13 13:12:55;;;;;;;3.72;1.45;;;23.10;73.50;;;;;;6099883;27;81057;-61
2023/03/13 13:15:56;;;;;;;6.20;1.35;;;23.10;73.60;;;;;;6089581;28;85430;-62
2023/03/13 13:18:56;;;;;;;2.50;1.27;;;23.10;73.30;;;;;;6096077;28;85822;-61
2023/03/13 13:21:57;;;;;;;4.90;1.38;;;23.10;73.70;;;;;;6093445;28;82121;-59
2023/03/13 13:24:57;;;;;;;5.40;1.60;;;23.10;73.40;;;;;;6101760;28;80424;-60
2023/03/13 13:27:58;;;;;;;1.40;1.20;;;23.10;73.60;;;;;;6099908;28;80292;-60
2023/03/13 13:30:58;;;;;;;3.58;1.67;;;23.00;73.40;;;;;;6100628;28;82769;-60
2023/03/13 13:33:59;;;;;;;1.52;1.10;;;23.00;73.30;;;;;;6096355;28;80578;-63
2023/03/13 13:36:59;;;;;;;2.60;1.27;;;23.00;73.30;;;;;;6096635;28;81040;-62
2023/03/13 13:40:00;;;;;;;2.55;1.17;;;23.00;73.40;;;;;;6094844;28;80660;-62
2023/03/13 13:43:00;;;;;;;4.03;1.10;;;22.80;73.00;;;;;;6097561;28;80450;-63
2023/03/13 13:46:01;;;;;;;3.35;1.40;;;22.50;72.90;;;;;;6099230;28;81359;-61
2023/03/13 13:49:01;;;;;;;1.52;1.17;;;22.40;73.00;;;;;;6093817;28;81814;-62
2023/03/13 13:52:02;;;;;;;1.42;1.27;;;22.20;73.20;;;;;;6100025;28;80559;-61
2023/03/13 13:55:03;;;;;;;2.97;1.38;;;22.30;73.40;;;;;;6091658;27;85045;-61
2023/03/13 13:58:03;;;;;;;5.75;1.65;;;22.40;73.60;;;;;;6102316;28;80638;-60
2023/03/13 14:01:09;;;;;;;5.70;1.15;;;22.40;73.60;;;;;;6093493;28;81433;-60
2023/03/13 14:04:10;;;;;;;12.73;1.83;;;22.50;73.80;;;;;;6187331;28;84383;-59
2023/03/13 14:07:10;;;;;;;2.08;1.45;;;22.50;74.00;;;;;;6108621;28;80506;-60
2023/03/13 14:10:11;;;;;;;3.53;1.40;;;22.50;74.00;;;;;;6101052;28;81370;-61
2023/03/13 14:13:11;;;;;;;3.17;1.42;;;22.50;74.10;;;;;;6104085;28;80574;-61
2023/03/13 14:16:12;;;;;;;2.40;1.45;;;22.60;74.30;;;;;;6099737;28;81627;-62
2023/03/13 14:19:12;;;;;;;2.90;1.50;;;22.60;74.50;;;;;;6100201;28;81981;-62
2023/03/13 14:22:13;;;;;;;2.20;1.33;;;22.50;74.60;;;;;;6099488;28;81522;-63
2023/03/13 14:25:13;;;;;;;2.13;1.42;;;22.60;74.90;;;;;;6103961;28;80648;-61
2023/03/13 14:28:14;;;;;;;3.83;1.27;;;22.60;74.90;;;;;;6101351;28;81526;-61
2023/03/13 14:31:14;;;;;;;2.42;1.30;;;22.70;75.00;;;;;;6104732;28;80974;-62
2023/03/13 14:34:15;;;;;;;3.15;1.38;;;22.70;75.20;;;;;;6105464;28;80445;-62
2023/03/13 14:37:15;;;;;;;3.53;1.52;;;22.70;75.40;;;;;;6187317;28;80621;-62
2023/03/13 14:40:16;;;;;;;2.55;1.52;;;22.70;75.60;;;;;;6106162;28;81182;-62
2023/03/13 14:43:16;;;;;;;2.50;1.25;;;22.70;75.70;;;;;;6102079;28;80573;-60
2023/03/13 14:46:17;;;;;;;1.80;1.38;;;22.70;76.00;;;;;;6104478;28;80586;-61
2023/03/13 14:49:18;;;;;;;4.15;1.42;;;22.70;76.00;;;;;;6104275;28;80798;-59
2023/03/13 14:52:18;;;;;;;2.78;1.48;;;22.70;75.90;;;;;;6104014;28;80453;-60
2023/03/13 14:55:19;;;;;;;1.83;1.20;;;22.70;76.00;;;;;;6101906;28;80392;-62
2023/03/13 14:58:19;;;;;;;1.25;1.15;;;22.70;75.90;;;;;;6099701;28;80616;-62
2023/03/13 15:01:20;;;;;;;3.67;1.40;;;22.70;75.90;;;;;;6102865;28;81030;-60
2023/03/13 15:04:21;;;;;;;3.90;1.65;;;22.70;76.20;;;;;;6103575;28;81159;-61
2023/03/13 15:07:21;;;;;;;5.13;1.55;;;22.70;76.10;;;;;;6098181;28;81130;-62
2023/03/13 15:10:22;;;;;;;2.55;1.60;;;22.80;76.30;;;;;;6103819;28;80395;-60
2023/03/13 15:13:22;;;;;;;4.45;1.40;;;22.80;76.40;;;;;;6103725;28;80555;-61
2023/03/13 15:16:23;;;;;;;2.33;1.45;;;22.80;76.40;;;;;;6103171;28;80296;-63
2023/03/13 15:19:23;;;;;;;3.22;1.40;;;22.90;77.10;;;;;;6095547;28;80698;-60
2023/03/13 15:22:24;;;;;;;6.57;1.50;;;22.90;76.80;;;;;;6097156;28;80561;-61
2023/03/13 15:25:25;;;;;;;2.85;1.60;;;22.90;77.20;;;;;;6099880;28;84977;-62
2023/03/13 15:28:26;;;;;;;3.28;1.90;;;22.90;77.10;;;;;;6099506;28;81855;-63
2023/03/13 15:31:26;;;;;;;3.03;1.52;;;22.90;77.20;;;;;;6101703;28;81164;-64
2023/03/13 15:34:28;;;;;;;4.28;1.95;;;22.90;77.40;;;;;;6098168;28;83121;-65
2023/03/13 15:37:28;;;;;;;7.85;1.90;;;22.90;77.70;;;;;;6092072;28;80495;-65
2023/03/13 15:40:32;;;;;;;4.85;1.80;;;22.90;77.70;;;;;;6096272;28;82591;-64
2023/03/13 15:43:33;;;;;;;2.45;1.85;;;22.90;77.90;;;;;;6100686;28;82501;-64
2023/03/13 15:46:33;;;;;;;3.90;1.60;;;23.00;78.10;;;;;;6199859;28;81235;-66